sensor_id;sensor_type;location;lat;lon;timestamp;P1;durP1;ratioP1;P2;durP2;ratioP2
66607;SDS011;53462;39.616;8.824;2023-09-19T00:01:42;27.55;;;4.57;;
66607;SDS011;53462;39.616;8.824;2023-09-19T00:04:11;32.70;;;4.10;;
66607;SDS011;53462;39.616;8.824;2023-09-19T00:09:22;24.38;;;3.88;;
66607;SDS011;53462;39.616;8.824;2023-09-19T00:11:51;28.67;;;4.25;;
66607;SDS011;53462;39.616;8.824;2023-09-19T00:14:18;27.17;;;4.05;;
66607;SDS011;53462;39.616;8.824;2023-09-19T00:16:43;21.67;;;3.88;;
66607;SDS011;53462;39.616;8.824;2023-09-19T00:19:12;32.92;;;4.30;;
66607;SDS011;53462;39.616;8.824;2023-09-19T00:21:38;32.40;;;4.10;;
66607;SDS011;53462;39.616;8.824;2023-09-19T00:24:06;25.80;;;3.88;;
66607;SDS011;53462;39.616;8.824;2023-09-19T00:26:32;29.77;;;5.57;;
66607;SDS011;53462;39.616;8.824;2023-09-19T00:28:59;18.48;;;3.88;;
66607;SDS011;53462;39.616;8.824;2023-09-19T00:31:33;29.08;;;4.10;;
66607;SDS011;53462;39.616;8.824;2023-09-19T00:33:59;22.88;;;3.67;;
66607;SDS011;53462;39.616;8.824;2023-09-19T00:36:31;32.83;;;5.43;;
66607;SDS011;53462;39.616;8.824;2023-09-19T00:38:59;23.15;;;4.53;;
66607;SDS011;53462;39.616;8.824;2023-09-19T00:41:25;34.70;;;4.22;;
66607;SDS011;53462;39.616;8.824;2023-09-19T00:43:52;21.80;;;4.38;;
66607;SDS011;53462;39.616;8.824;2023-09-19T00:46:18;27.35;;;4.07;;
66607;SDS011;53462;39.616;8.824;2023-09-19T00:48:45;19.10;;;3.55;;
66607;SDS011;53462;39.616;8.824;2023-09-19T00:51:12;20.35;;;3.47;;
66607;SDS011;53462;39.616;8.824;2023-09-19T00:53:39;20.67;;;4.10;;
66607;SDS011;53462;39.616;8.824;2023-09-19T00:56:11;31.42;;;4.47;;
66607;SDS011;53462;39.616;8.824;2023-09-19T00:58:37;23.45;;;4.57;;
66607;SDS011;53462;39.616;8.824;2023-09-19T01:01:04;22.15;;;3.78;;
66607;SDS011;53462;39.616;8.824;2023-09-19T01:03:34;24.13;;;3.58;;
66607;SDS011;53462;39.616;8.824;2023-09-19T01:06:01;20.15;;;3.95;;
66607;SDS011;53462;39.616;8.824;2023-09-19T01:08:27;24.45;;;4.30;;
66607;SDS011;53462;39.616;8.824;2023-09-19T01:11:18;22.75;;;3.80;;
66607;SDS011;53462;39.616;8.824;2023-09-19T01:13:55;23.23;;;3.72;;
66607;SDS011;53462;39.616;8.824;2023-09-19T01:17:05;30.05;;;5.35;;
66607;SDS011;53462;39.616;8.824;2023-09-19T01:31:02;25.90;;;4.43;;
66607;SDS011;53462;39.616;8.824;2023-09-19T01:33:53;31.95;;;4.78;;
66607;SDS011;53462;39.616;8.824;2023-09-19T01:36:27;21.70;;;3.90;;
66607;SDS011;53462;39.616;8.824;2023-09-19T01:38:54;25.23;;;4.28;;
66607;SDS011;53462;39.616;8.824;2023-09-19T01:41:26;30.25;;;4.20;;
66607;SDS011;53462;39.616;8.824;2023-09-19T01:44:01;20.52;;;3.70;;
66607;SDS011;53462;39.616;8.824;2023-09-19T01:46:35;23.67;;;3.50;;
66607;SDS011;53462;39.616;8.824;2023-09-19T01:49:12;22.05;;;4.13;;
66607;SDS011;53462;39.616;8.824;2023-09-19T01:57:26;15.07;;;2.95;;
66607;SDS011;53462;39.616;8.824;2023-09-19T02:00:08;18.92;;;3.30;;
66607;SDS011;53462;39.616;8.824;2023-09-19T02:02:44;21.67;;;3.88;;
66607;SDS011;53462;39.616;8.824;2023-09-19T02:05:13;25.88;;;4.13;;
66607;SDS011;53462;39.616;8.824;2023-09-19T02:07:47;20.88;;;3.35;;
66607;SDS011;53462;39.616;8.824;2023-09-19T02:10:15;26.73;;;3.55;;
66607;SDS011;53462;39.616;8.824;2023-09-19T02:12:42;25.27;;;3.88;;
66607;SDS011;53462;39.616;8.824;2023-09-19T02:15:08;24.25;;;3.67;;
66607;SDS011;53462;39.616;8.824;2023-09-19T02:17:34;23.15;;;3.50;;
66607;SDS011;53462;39.616;8.824;2023-09-19T02:20:00;27.48;;;4.03;;
66607;SDS011;53462;39.616;8.824;2023-09-19T02:22:28;25.25;;;4.40;;
66607;SDS011;53462;39.616;8.824;2023-09-19T02:24:55;18.77;;;3.55;;
66607;SDS011;53462;39.616;8.824;2023-09-19T02:27:23;18.33;;;3.65;;
66607;SDS011;53462;39.616;8.824;2023-09-19T02:29:50;26.15;;;3.70;;
66607;SDS011;53462;39.616;8.824;2023-09-19T02:32:17;25.33;;;5.57;;
66607;SDS011;53462;39.616;8.824;2023-09-19T02:34:43;27.05;;;4.28;;
66607;SDS011;53462;39.616;8.824;2023-09-19T02:37:09;24.88;;;3.92;;
66607;SDS011;53462;39.616;8.824;2023-09-19T02:39:36;23.52;;;4.00;;
66607;SDS011;53462;39.616;8.824;2023-09-19T02:42:02;22.08;;;4.07;;
66607;SDS011;53462;39.616;8.824;2023-09-19T02:44:29;24.55;;;4.78;;
66607;SDS011;53462;39.616;8.824;2023-09-19T02:46:55;22.80;;;4.28;;
66607;SDS011;53462;39.616;8.824;2023-09-19T02:49:22;22.38;;;3.40;;
66607;SDS011;53462;39.616;8.824;2023-09-19T02:51:48;25.70;;;4.53;;
66607;SDS011;53462;39.616;8.824;2023-09-19T02:54:14;18.67;;;3.28;;
66607;SDS011;53462;39.616;8.824;2023-09-19T02:56:44;17.10;;;3.60;;
66607;SDS011;53462;39.616;8.824;2023-09-19T02:59:10;29.23;;;4.03;;
66607;SDS011;53462;39.616;8.824;2023-09-19T03:01:36;18.75;;;3.53;;
66607;SDS011;53462;39.616;8.824;2023-09-19T03:04:05;23.20;;;3.50;;
66607;SDS011;53462;39.616;8.824;2023-09-19T03:06:37;15.75;;;3.22;;
66607;SDS011;53462;39.616;8.824;2023-09-19T03:09:04;21.15;;;3.90;;
66607;SDS011;53462;39.616;8.824;2023-09-19T03:11:38;21.55;;;3.80;;
66607;SDS011;53462;39.616;8.824;2023-09-19T03:14:05;20.20;;;3.47;;
66607;SDS011;53462;39.616;8.824;2023-09-19T03:16:32;27.25;;;3.85;;
66607;SDS011;53462;39.616;8.824;2023-09-19T03:18:59;18.70;;;3.28;;
66607;SDS011;53462;39.616;8.824;2023-09-19T03:21:26;28.08;;;4.15;;
66607;SDS011;53462;39.616;8.824;2023-09-19T03:23:55;22.05;;;3.90;;
66607;SDS011;53462;39.616;8.824;2023-09-19T03:26:21;26.17;;;4.65;;
66607;SDS011;53462;39.616;8.824;2023-09-19T03:28:47;12.63;;;3.00;;
66607;SDS011;53462;39.616;8.824;2023-09-19T03:31:14;22.25;;;4.50;;
66607;SDS011;53462;39.616;8.824;2023-09-19T03:33:39;19.60;;;3.60;;
66607;SDS011;53462;39.616;8.824;2023-09-19T03:36:05;26.65;;;4.28;;
66607;SDS011;53462;39.616;8.824;2023-09-19T03:38:32;30.98;;;4.03;;
66607;SDS011;53462;39.616;8.824;2023-09-19T03:41:02;17.83;;;4.00;;
66607;SDS011;53462;39.616;8.824;2023-09-19T03:43:28;20.00;;;3.47;;
66607;SDS011;53462;39.616;8.824;2023-09-19T03:45:54;21.30;;;3.53;;
66607;SDS011;53462;39.616;8.824;2023-09-19T03:48:21;21.45;;;3.63;;
66607;SDS011;53462;39.616;8.824;2023-09-19T03:50:48;20.63;;;3.53;;
66607;SDS011;53462;39.616;8.824;2023-09-19T03:53:15;14.32;;;3.90;;
66607;SDS011;53462;39.616;8.824;2023-09-19T03:55:41;18.55;;;3.78;;
66607;SDS011;53462;39.616;8.824;2023-09-19T03:58:07;19.13;;;3.17;;
66607;SDS011;53462;39.616;8.824;2023-09-19T04:00:33;21.13;;;4.45;;
66607;SDS011;53462;39.616;8.824;2023-09-19T04:03:01;17.48;;;3.53;;
66607;SDS011;53462;39.616;8.824;2023-09-19T04:05:31;24.00;;;4.05;;
66607;SDS011;53462;39.616;8.824;2023-09-19T04:07:58;20.33;;;3.55;;
66607;SDS011;53462;39.616;8.824;2023-09-19T04:10:23;27.10;;;3.92;;
66607;SDS011;53462;39.616;8.824;2023-09-19T04:12:53;21.73;;;3.65;;
66607;SDS011;53462;39.616;8.824;2023-09-19T04:15:21;22.38;;;3.95;;
66607;SDS011;53462;39.616;8.824;2023-09-19T04:17:49;24.05;;;4.90;;
66607;SDS011;53462;39.616;8.824;2023-09-19T04:20:16;20.98;;;3.45;;
66607;SDS011;53462;39.616;8.824;2023-09-19T04:22:43;28.27;;;5.00;;
66607;SDS011;53462;39.616;8.824;2023-09-19T04:25:09;19.55;;;3.50;;
66607;SDS011;53462;39.616;8.824;2023-09-19T04:27:35;24.17;;;3.40;;
66607;SDS011;53462;39.616;8.824;2023-09-19T04:30:01;18.77;;;4.20;;
66607;SDS011;53462;39.616;8.824;2023-09-19T04:32:29;13.05;;;3.17;;
66607;SDS011;53462;39.616;8.824;2023-09-19T04:34:57;23.50;;;3.35;;
66607;SDS011;53462;39.616;8.824;2023-09-19T04:37:25;23.33;;;3.85;;
66607;SDS011;53462;39.616;8.824;2023-09-19T04:39:51;23.90;;;3.28;;
66607;SDS011;53462;39.616;8.824;2023-09-19T04:42:17;25.23;;;3.90;;
66607;SDS011;53462;39.616;8.824;2023-09-19T04:44:44;17.42;;;2.92;;
66607;SDS011;53462;39.616;8.824;2023-09-19T04:47:10;19.83;;;3.20;;
66607;SDS011;53462;39.616;8.824;2023-09-19T04:49:37;18.60;;;3.03;;
66607;SDS011;53462;39.616;8.824;2023-09-19T04:52:04;18.30;;;3.53;;
66607;SDS011;53462;39.616;8.824;2023-09-19T04:54:30;25.90;;;3.80;;
66607;SDS011;53462;39.616;8.824;2023-09-19T04:56:56;14.50;;;3.35;;
66607;SDS011;53462;39.616;8.824;2023-09-19T04:59:22;14.48;;;3.10;;
66607;SDS011;53462;39.616;8.824;2023-09-19T05:01:48;27.83;;;4.60;;
66607;SDS011;53462;39.616;8.824;2023-09-19T05:04:14;18.83;;;3.60;;
66607;SDS011;53462;39.616;8.824;2023-09-19T05:06:40;21.60;;;3.53;;
66607;SDS011;53462;39.616;8.824;2023-09-19T05:09:06;25.33;;;3.92;;
66607;SDS011;53462;39.616;8.824;2023-09-19T05:11:32;26.23;;;3.47;;
66607;SDS011;53462;39.616;8.824;2023-09-19T05:13:58;14.38;;;3.00;;
66607;SDS011;53462;39.616;8.824;2023-09-19T05:16:29;21.50;;;3.33;;
66607;SDS011;53462;39.616;8.824;2023-09-19T05:18:58;24.55;;;3.47;;
66607;SDS011;53462;39.616;8.824;2023-09-19T05:21:28;21.75;;;3.63;;
66607;SDS011;53462;39.616;8.824;2023-09-19T05:23:56;23.98;;;3.83;;
66607;SDS011;53462;39.616;8.824;2023-09-19T05:26:22;20.40;;;3.17;;
66607;SDS011;53462;39.616;8.824;2023-09-19T05:28:47;23.67;;;4.72;;
66607;SDS011;53462;39.616;8.824;2023-09-19T05:31:13;25.48;;;4.28;;
66607;SDS011;53462;39.616;8.824;2023-09-19T05:33:40;22.55;;;3.45;;
66607;SDS011;53462;39.616;8.824;2023-09-19T05:36:06;17.40;;;3.15;;
66607;SDS011;53462;39.616;8.824;2023-09-19T05:38:36;23.65;;;3.72;;
66607;SDS011;53462;39.616;8.824;2023-09-19T05:41:05;23.80;;;3.55;;
66607;SDS011;53462;39.616;8.824;2023-09-19T05:43:32;20.02;;;3.65;;
66607;SDS011;53462;39.616;8.824;2023-09-19T05:45:59;22.10;;;4.03;;
66607;SDS011;53462;39.616;8.824;2023-09-19T05:48:25;17.13;;;3.67;;
66607;SDS011;53462;39.616;8.824;2023-09-19T05:50:51;25.05;;;3.95;;
66607;SDS011;53462;39.616;8.824;2023-09-19T05:53:17;21.52;;;3.92;;
66607;SDS011;53462;39.616;8.824;2023-09-19T05:55:43;20.65;;;3.83;;
66607;SDS011;53462;39.616;8.824;2023-09-19T05:58:09;22.75;;;3.63;;
66607;SDS011;53462;39.616;8.824;2023-09-19T06:00:35;17.05;;;2.88;;
66607;SDS011;53462;39.616;8.824;2023-09-19T06:03:01;18.98;;;3.40;;
66607;SDS011;53462;39.616;8.824;2023-09-19T06:05:27;31.05;;;4.65;;
66607;SDS011;53462;39.616;8.824;2023-09-19T06:07:55;22.38;;;3.50;;
66607;SDS011;53462;39.616;8.824;2023-09-19T06:10:25;23.45;;;3.80;;
66607;SDS011;53462;39.616;8.824;2023-09-19T06:12:53;24.30;;;4.03;;
66607;SDS011;53462;39.616;8.824;2023-09-19T06:15:20;23.70;;;3.55;;
66607;SDS011;53462;39.616;8.824;2023-09-19T06:17:54;16.02;;;3.67;;
66607;SDS011;53462;39.616;8.824;2023-09-19T06:20:22;15.82;;;3.05;;
66607;SDS011;53462;39.616;8.824;2023-09-19T06:22:49;24.65;;;3.65;;
66607;SDS011;53462;39.616;8.824;2023-09-19T06:25:15;19.38;;;3.13;;
66607;SDS011;53462;39.616;8.824;2023-09-19T06:27:48;24.67;;;3.70;;
66607;SDS011;53462;39.616;8.824;2023-09-19T06:30:17;18.67;;;3.55;;
66607;SDS011;53462;39.616;8.824;2023-09-19T06:32:43;23.35;;;4.32;;
66607;SDS011;53462;39.616;8.824;2023-09-19T06:35:10;16.75;;;3.47;;
66607;SDS011;53462;39.616;8.824;2023-09-19T06:37:37;18.67;;;2.95;;
66607;SDS011;53462;39.616;8.824;2023-09-19T06:40:08;22.25;;;3.20;;
66607;SDS011;53462;39.616;8.824;2023-09-19T06:42:44;18.70;;;3.75;;
66607;SDS011;53462;39.616;8.824;2023-09-19T06:45:11;14.57;;;2.92;;
66607;SDS011;53462;39.616;8.824;2023-09-19T06:47:39;25.45;;;3.65;;
66607;SDS011;53462;39.616;8.824;2023-09-19T06:50:05;22.67;;;3.90;;
66607;SDS011;53462;39.616;8.824;2023-09-19T06:52:34;21.63;;;3.72;;
66607;SDS011;53462;39.616;8.824;2023-09-19T06:55:00;22.90;;;3.70;;
66607;SDS011;53462;39.616;8.824;2023-09-19T06:57:28;18.75;;;2.85;;
66607;SDS011;53462;39.616;8.824;2023-09-19T06:59:55;18.45;;;3.40;;
66607;SDS011;53462;39.616;8.824;2023-09-19T07:02:21;15.02;;;2.83;;
66607;SDS011;53462;39.616;8.824;2023-09-19T07:04:47;19.80;;;3.28;;
66607;SDS011;53462;39.616;8.824;2023-09-19T07:07:15;22.83;;;2.80;;
66607;SDS011;53462;39.616;8.824;2023-09-19T07:09:41;12.10;;;2.28;;
66607;SDS011;53462;39.616;8.824;2023-09-19T07:12:07;14.65;;;2.33;;
66607;SDS011;53462;39.616;8.824;2023-09-19T07:14:33;17.00;;;2.75;;
66607;SDS011;53462;39.616;8.824;2023-09-19T07:17:00;13.07;;;2.60;;
66607;SDS011;53462;39.616;8.824;2023-09-19T07:19:26;16.23;;;3.38;;
66607;SDS011;53462;39.616;8.824;2023-09-19T07:21:56;22.88;;;3.08;;
66607;SDS011;53462;39.616;8.824;2023-09-19T07:24:24;26.85;;;3.75;;
66607;SDS011;53462;39.616;8.824;2023-09-19T07:26:52;14.75;;;3.08;;
66607;SDS011;53462;39.616;8.824;2023-09-19T07:29:18;18.77;;;3.50;;
66607;SDS011;53462;39.616;8.824;2023-09-19T07:31:44;18.67;;;3.25;;
66607;SDS011;53462;39.616;8.824;2023-09-19T07:34:11;15.90;;;2.65;;
66607;SDS011;53462;39.616;8.824;2023-09-19T07:36:39;18.10;;;2.88;;
66607;SDS011;53462;39.616;8.824;2023-09-19T07:39:07;15.23;;;3.17;;
66607;SDS011;53462;39.616;8.824;2023-09-19T07:41:33;20.70;;;3.22;;
66607;SDS011;53462;39.616;8.824;2023-09-19T07:43:59;17.38;;;3.22;;
66607;SDS011;53462;39.616;8.824;2023-09-19T07:46:26;17.55;;;2.53;;
66607;SDS011;53462;39.616;8.824;2023-09-19T07:48:51;20.15;;;2.75;;
66607;SDS011;53462;39.616;8.824;2023-09-19T07:51:17;14.82;;;2.55;;
66607;SDS011;53462;39.616;8.824;2023-09-19T07:53:44;18.50;;;2.55;;
66607;SDS011;53462;39.616;8.824;2023-09-19T07:56:09;14.32;;;2.20;;
66607;SDS011;53462;39.616;8.824;2023-09-19T07:58:35;11.48;;;2.45;;
66607;SDS011;53462;39.616;8.824;2023-09-19T08:01:07;17.63;;;2.97;;
66607;SDS011;53462;39.616;8.824;2023-09-19T08:03:37;16.80;;;2.80;;
66607;SDS011;53462;39.616;8.824;2023-09-19T08:06:08;12.23;;;2.28;;
66607;SDS011;53462;39.616;8.824;2023-09-19T08:08:35;19.95;;;2.55;;
66607;SDS011;53462;39.616;8.824;2023-09-19T08:11:02;17.98;;;2.85;;
66607;SDS011;53462;39.616;8.824;2023-09-19T08:13:46;18.02;;;3.00;;
66607;SDS011;53462;39.616;8.824;2023-09-19T08:16:14;17.40;;;2.63;;
66607;SDS011;53462;39.616;8.824;2023-09-19T08:18:41;21.75;;;3.00;;
66607;SDS011;53462;39.616;8.824;2023-09-19T08:21:07;22.40;;;2.90;;
66607;SDS011;53462;39.616;8.824;2023-09-19T08:23:36;19.63;;;2.65;;
66607;SDS011;53462;39.616;8.824;2023-09-19T08:26:03;24.48;;;3.10;;
66607;SDS011;53462;39.616;8.824;2023-09-19T08:28:33;18.77;;;2.88;;
66607;SDS011;53462;39.616;8.824;2023-09-19T08:31:03;19.83;;;3.15;;
66607;SDS011;53462;39.616;8.824;2023-09-19T08:33:32;24.92;;;3.03;;
66607;SDS011;53462;39.616;8.824;2023-09-19T08:35:59;17.98;;;3.17;;
66607;SDS011;53462;39.616;8.824;2023-09-19T08:38:26;18.67;;;2.83;;
66607;SDS011;53462;39.616;8.824;2023-09-19T08:40:59;17.10;;;2.38;;
66607;SDS011;53462;39.616;8.824;2023-09-19T08:43:28;20.30;;;2.38;;
66607;SDS011;53462;39.616;8.824;2023-09-19T08:48:48;20.63;;;3.00;;
66607;SDS011;53462;39.616;8.824;2023-09-19T08:51:30;16.48;;;2.83;;
66607;SDS011;53462;39.616;8.824;2023-09-19T08:54:04;17.30;;;2.50;;
66607;SDS011;53462;39.616;8.824;2023-09-19T08:56:32;20.23;;;2.63;;
66607;SDS011;53462;39.616;8.824;2023-09-19T08:59:05;14.90;;;3.05;;
66607;SDS011;53462;39.616;8.824;2023-09-19T09:01:34;15.88;;;2.50;;
66607;SDS011;53462;39.616;8.824;2023-09-19T09:04:02;17.42;;;2.90;;
66607;SDS011;53462;39.616;8.824;2023-09-19T09:06:29;18.02;;;2.65;;
66607;SDS011;53462;39.616;8.824;2023-09-19T09:08:57;18.50;;;2.90;;
66607;SDS011;53462;39.616;8.824;2023-09-19T09:11:24;25.02;;;3.53;;
66607;SDS011;53462;39.616;8.824;2023-09-19T09:13:50;16.73;;;2.45;;
66607;SDS011;53462;39.616;8.824;2023-09-19T09:16:16;13.57;;;2.53;;
66607;SDS011;53462;39.616;8.824;2023-09-19T09:18:45;14.43;;;2.58;;
66607;SDS011;53462;39.616;8.824;2023-09-19T09:21:12;20.65;;;2.75;;
66607;SDS011;53462;39.616;8.824;2023-09-19T09:23:40;15.60;;;2.40;;
66607;SDS011;53462;39.616;8.824;2023-09-19T09:26:06;16.40;;;2.38;;
66607;SDS011;53462;39.616;8.824;2023-09-19T09:28:34;14.05;;;2.50;;
66607;SDS011;53462;39.616;8.824;2023-09-19T09:31:02;11.52;;;2.30;;
66607;SDS011;53462;39.616;8.824;2023-09-19T09:33:33;17.42;;;2.72;;
66607;SDS011;53462;39.616;8.824;2023-09-19T09:36:00;17.15;;;2.55;;
66607;SDS011;53462;39.616;8.824;2023-09-19T09:38:44;15.57;;;2.88;;
66607;SDS011;53462;39.616;8.824;2023-09-19T09:41:13;13.93;;;2.53;;
66607;SDS011;53462;39.616;8.824;2023-09-19T09:43:52;11.55;;;2.20;;
66607;SDS011;53462;39.616;8.824;2023-09-19T09:46:20;17.08;;;2.67;;
66607;SDS011;53462;39.616;8.824;2023-09-19T09:48:47;27.10;;;2.80;;
66607;SDS011;53462;39.616;8.824;2023-09-19T09:51:48;23.77;;;3.13;;
66607;SDS011;53462;39.616;8.824;2023-09-19T09:54:38;26.63;;;3.00;;
66607;SDS011;53462;39.616;8.824;2023-09-19T09:57:32;30.20;;;2.75;;
66607;SDS011;53462;39.616;8.824;2023-09-19T09:59:59;38.85;;;3.55;;
66607;SDS011;53462;39.616;8.824;2023-09-19T10:05:14;20.65;;;3.55;;
66607;SDS011;53462;39.616;8.824;2023-09-19T10:07:58;26.02;;;2.80;;
66607;SDS011;53462;39.616;8.824;2023-09-19T10:10:40;21.40;;;2.80;;
66607;SDS011;53462;39.616;8.824;2023-09-19T10:13:07;15.52;;;2.72;;
66607;SDS011;53462;39.616;8.824;2023-09-19T10:15:39;19.90;;;2.83;;
66607;SDS011;53462;39.616;8.824;2023-09-19T10:20:42;15.05;;;2.75;;
66607;SDS011;53462;39.616;8.824;2023-09-19T10:23:10;9.55;;;2.83;;
66607;SDS011;53462;39.616;8.824;2023-09-19T10:25:38;17.52;;;2.83;;
66607;SDS011;53462;39.616;8.824;2023-09-19T10:28:06;15.05;;;2.80;;
66607;SDS011;53462;39.616;8.824;2023-09-19T10:33:19;17.13;;;2.53;;
66607;SDS011;53462;39.616;8.824;2023-09-19T10:35:52;19.35;;;3.25;;
66607;SDS011;53462;39.616;8.824;2023-09-19T10:38:26;15.95;;;2.42;;
66607;SDS011;53462;39.616;8.824;2023-09-19T10:40:54;18.48;;;3.42;;
66607;SDS011;53462;39.616;8.824;2023-09-19T10:43:31;16.55;;;2.70;;
66607;SDS011;53462;39.616;8.824;2023-09-19T10:46:02;20.50;;;2.67;;
66607;SDS011;53462;39.616;8.824;2023-09-19T10:48:32;13.65;;;2.63;;
66607;SDS011;53462;39.616;8.824;2023-09-19T10:51:02;10.93;;;2.55;;
66607;SDS011;53462;39.616;8.824;2023-09-19T10:53:51;14.82;;;2.53;;
66607;SDS011;53462;39.616;8.824;2023-09-19T10:56:36;19.75;;;2.65;;
66607;SDS011;53462;39.616;8.824;2023-09-19T11:01:51;18.27;;;2.70;;
66607;SDS011;53462;39.616;8.824;2023-09-19T11:07:11;16.50;;;2.63;;
66607;SDS011;53462;39.616;8.824;2023-09-19T11:09:43;13.48;;;2.70;;
66607;SDS011;53462;39.616;8.824;2023-09-19T11:12:11;23.00;;;3.33;;
66607;SDS011;53462;39.616;8.824;2023-09-19T11:15:11;14.38;;;3.10;;
66607;SDS011;53462;39.616;8.824;2023-09-19T11:21:52;14.80;;;2.40;;
66607;SDS011;53462;39.616;8.824;2023-09-19T11:26:57;11.65;;;2.40;;
66607;SDS011;53462;39.616;8.824;2023-09-19T11:29:43;15.45;;;2.72;;
66607;SDS011;53462;39.616;8.824;2023-09-19T11:32:10;15.60;;;2.75;;
66607;SDS011;53462;39.616;8.824;2023-09-19T11:37:04;11.85;;;2.88;;
66607;SDS011;53462;39.616;8.824;2023-09-19T11:40:11;17.58;;;2.72;;
66607;SDS011;53462;39.616;8.824;2023-09-19T11:42:47;18.63;;;2.70;;
66607;SDS011;53462;39.616;8.824;2023-09-19T11:48:13;16.33;;;2.88;;
66607;SDS011;53462;39.616;8.824;2023-09-19T11:50:42;17.77;;;3.38;;
66607;SDS011;53462;39.616;8.824;2023-09-19T11:53:09;18.13;;;3.15;;
66607;SDS011;53462;39.616;8.824;2023-09-19T11:55:38;17.90;;;4.53;;
66607;SDS011;53462;39.616;8.824;2023-09-19T11:58:08;20.85;;;3.33;;
66607;SDS011;53462;39.616;8.824;2023-09-19T12:00:35;14.50;;;3.17;;
66607;SDS011;53462;39.616;8.824;2023-09-19T12:03:08;19.17;;;3.58;;
66607;SDS011;53462;39.616;8.824;2023-09-19T12:05:36;22.35;;;3.80;;
66607;SDS011;53462;39.616;8.824;2023-09-19T12:08:07;19.20;;;3.88;;
66607;SDS011;53462;39.616;8.824;2023-09-19T12:10:44;18.45;;;2.95;;
66607;SDS011;53462;39.616;8.824;2023-09-19T12:13:17;27.38;;;4.15;;
66607;SDS011;53462;39.616;8.824;2023-09-19T12:15:44;17.23;;;2.83;;
66607;SDS011;53462;39.616;8.824;2023-09-19T12:18:26;21.02;;;3.05;;
66607;SDS011;53462;39.616;8.824;2023-09-19T12:20:55;18.27;;;2.63;;
66607;SDS011;53462;39.616;8.824;2023-09-19T12:23:23;20.10;;;2.90;;
66607;SDS011;53462;39.616;8.824;2023-09-19T12:25:51;15.68;;;2.90;;
66607;SDS011;53462;39.616;8.824;2023-09-19T12:28:19;14.70;;;2.38;;
66607;SDS011;53462;39.616;8.824;2023-09-19T12:30:47;15.07;;;2.90;;
66607;SDS011;53462;39.616;8.824;2023-09-19T12:33:20;13.75;;;2.75;;
66607;SDS011;53462;39.616;8.824;2023-09-19T12:35:50;17.80;;;2.83;;
66607;SDS011;53462;39.616;8.824;2023-09-19T12:38:27;20.05;;;3.05;;
66607;SDS011;53462;39.616;8.824;2023-09-19T12:40:57;20.00;;;3.20;;
66607;SDS011;53462;39.616;8.824;2023-09-19T12:43:30;17.13;;;3.00;;
66607;SDS011;53462;39.616;8.824;2023-09-19T12:46:01;23.05;;;2.97;;
66607;SDS011;53462;39.616;8.824;2023-09-19T12:48:27;18.80;;;3.05;;
66607;SDS011;53462;39.616;8.824;2023-09-19T12:51:10;18.33;;;3.20;;
66607;SDS011;53462;39.616;8.824;2023-09-19T12:53:41;19.67;;;2.63;;
66607;SDS011;53462;39.616;8.824;2023-09-19T12:56:12;17.05;;;2.70;;
66607;SDS011;53462;39.616;8.824;2023-09-19T12:58:50;16.00;;;2.50;;
66607;SDS011;53462;39.616;8.824;2023-09-19T13:01:20;15.48;;;2.53;;
66607;SDS011;53462;39.616;8.824;2023-09-19T13:06:45;11.82;;;2.38;;
66607;SDS011;53462;39.616;8.824;2023-09-19T13:09:19;15.63;;;2.97;;
66607;SDS011;53462;39.616;8.824;2023-09-19T13:11:46;13.15;;;2.45;;
66607;SDS011;53462;39.616;8.824;2023-09-19T13:19:43;16.33;;;2.78;;
66607;SDS011;53462;39.616;8.824;2023-09-19T13:25:15;18.88;;;2.65;;
66607;SDS011;53462;39.616;8.824;2023-09-19T13:27:45;19.90;;;2.67;;
66607;SDS011;53462;39.616;8.824;2023-09-19T13:30:13;15.88;;;2.70;;
66607;SDS011;53462;39.616;8.824;2023-09-19T13:32:40;20.98;;;3.33;;
66607;SDS011;53462;39.616;8.824;2023-09-19T13:35:08;19.23;;;2.70;;
66607;SDS011;53462;39.616;8.824;2023-09-19T13:37:34;15.60;;;2.40;;
66607;SDS011;53462;39.616;8.824;2023-09-19T13:40:15;18.55;;;2.67;;
66607;SDS011;53462;39.616;8.824;2023-09-19T13:42:41;21.73;;;2.63;;
66607;SDS011;53462;39.616;8.824;2023-09-19T13:45:08;12.68;;;2.75;;
66607;SDS011;53462;39.616;8.824;2023-09-19T13:47:37;13.75;;;2.40;;
66607;SDS011;53462;39.616;8.824;2023-09-19T13:50:03;11.45;;;2.45;;
66607;SDS011;53462;39.616;8.824;2023-09-19T13:52:30;18.13;;;2.67;;
66607;SDS011;53462;39.616;8.824;2023-09-19T13:54:57;14.00;;;2.22;;
66607;SDS011;53462;39.616;8.824;2023-09-19T13:57:26;11.60;;;2.25;;
66607;SDS011;53462;39.616;8.824;2023-09-19T13:59:52;17.98;;;2.50;;
66607;SDS011;53462;39.616;8.824;2023-09-19T14:02:21;10.45;;;2.50;;
66607;SDS011;53462;39.616;8.824;2023-09-19T14:04:48;11.82;;;2.33;;
66607;SDS011;53462;39.616;8.824;2023-09-19T14:07:15;12.10;;;2.13;;
66607;SDS011;53462;39.616;8.824;2023-09-19T14:09:43;11.45;;;2.33;;
66607;SDS011;53462;39.616;8.824;2023-09-19T14:12:09;14.43;;;2.10;;
66607;SDS011;53462;39.616;8.824;2023-09-19T14:14:35;13.95;;;2.35;;
66607;SDS011;53462;39.616;8.824;2023-09-19T14:17:02;12.30;;;2.55;;
66607;SDS011;53462;39.616;8.824;2023-09-19T14:19:29;12.82;;;2.35;;
66607;SDS011;53462;39.616;8.824;2023-09-19T14:21:55;10.75;;;2.25;;
66607;SDS011;53462;39.616;8.824;2023-09-19T14:24:22;10.18;;;2.25;;
66607;SDS011;53462;39.616;8.824;2023-09-19T14:26:48;17.27;;;2.33;;
66607;SDS011;53462;39.616;8.824;2023-09-19T14:29:16;10.48;;;2.28;;
66607;SDS011;53462;39.616;8.824;2023-09-19T14:31:42;15.73;;;2.58;;
66607;SDS011;53462;39.616;8.824;2023-09-19T14:34:08;11.43;;;2.13;;
66607;SDS011;53462;39.616;8.824;2023-09-19T14:36:37;12.40;;;2.33;;
66607;SDS011;53462;39.616;8.824;2023-09-19T14:39:04;38.35;;;3.30;;
66607;SDS011;53462;39.616;8.824;2023-09-19T14:41:30;12.43;;;2.38;;
66607;SDS011;53462;39.616;8.824;2023-09-19T14:43:56;8.98;;;2.10;;
66607;SDS011;53462;39.616;8.824;2023-09-19T14:46:22;11.00;;;2.13;;
66607;SDS011;53462;39.616;8.824;2023-09-19T14:48:52;9.90;;;2.20;;
66607;SDS011;53462;39.616;8.824;2023-09-19T14:51:18;13.43;;;2.25;;
66607;SDS011;53462;39.616;8.824;2023-09-19T14:53:44;11.40;;;2.10;;
66607;SDS011;53462;39.616;8.824;2023-09-19T14:56:12;17.33;;;2.60;;
66607;SDS011;53462;39.616;8.824;2023-09-19T14:58:41;19.15;;;1.98;;
66607;SDS011;53462;39.616;8.824;2023-09-19T15:01:08;9.20;;;2.13;;
66607;SDS011;53462;39.616;8.824;2023-09-19T15:03:38;9.80;;;1.90;;
66607;SDS011;53462;39.616;8.824;2023-09-19T15:06:05;9.98;;;2.13;;
66607;SDS011;53462;39.616;8.824;2023-09-19T15:08:42;10.80;;;2.20;;
66607;SDS011;53462;39.616;8.824;2023-09-19T15:11:16;10.63;;;1.77;;
66607;SDS011;53462;39.616;8.824;2023-09-19T15:13:43;12.95;;;2.40;;
66607;SDS011;53462;39.616;8.824;2023-09-19T15:16:10;11.77;;;1.92;;
66607;SDS011;53462;39.616;8.824;2023-09-19T15:18:37;8.40;;;2.33;;
66607;SDS011;53462;39.616;8.824;2023-09-19T15:21:05;6.55;;;1.80;;
66607;SDS011;53462;39.616;8.824;2023-09-19T15:23:32;9.38;;;2.15;;
66607;SDS011;53462;39.616;8.824;2023-09-19T15:26:10;10.02;;;2.40;;
66607;SDS011;53462;39.616;8.824;2023-09-19T15:28:37;6.97;;;1.83;;
66607;SDS011;53462;39.616;8.824;2023-09-19T15:31:07;6.32;;;2.08;;
66607;SDS011;53462;39.616;8.824;2023-09-19T15:33:35;12.02;;;1.88;;
66607;SDS011;53462;39.616;8.824;2023-09-19T15:36:02;7.50;;;1.98;;
66607;SDS011;53462;39.616;8.824;2023-09-19T15:41:40;5.45;;;1.77;;
66607;SDS011;53462;39.616;8.824;2023-09-19T15:44:16;7.50;;;2.17;;
66607;SDS011;53462;39.616;8.824;2023-09-19T15:46:44;13.20;;;2.00;;
66607;SDS011;53462;39.616;8.824;2023-09-19T15:49:10;8.27;;;2.20;;
66607;SDS011;53462;39.616;8.824;2023-09-19T15:51:37;8.63;;;2.40;;